sensor_id;sensor_type;location;lat;lon;timestamp;temperature;humidity
18047;DHT22;9148;51.454;13.862;2022-09-25T00:00:48;8.80;99.90
18047;DHT22;9148;51.454;13.862;2022-09-25T00:03:16;8.80;99.90
18047;DHT22;9148;51.454;13.862;2022-09-25T00:05:44;8.70;99.90
18047;DHT22;9148;51.454;13.862;2022-09-25T00:08:11;8.70;99.90
18047;DHT22;9148;51.454;13.862;2022-09-25T00:10:46;8.70;99.90
18047;DHT22;9148;51.454;13.862;2022-09-25T00:13:14;8.60;99.90
18047;DHT22;9148;51.454;13.862;2022-09-25T00:15:56;8.70;99.90
18047;DHT22;9148;51.454;13.862;2022-09-25T00:18:23;8.50;99.90
18047;DHT22;9148;51.454;13.862;2022-09-25T00:21:11;8.50;99.90
18047;DHT22;9148;51.454;13.862;2022-09-25T00:23:39;8.50;99.90
18047;DHT22;9148;51.454;13.862;2022-09-25T00:26:07;8.50;99.90
18047;DHT22;9148;51.454;13.862;2022-09-25T00:28:34;8.40;99.90
18047;DHT22;9148;51.454;13.862;2022-09-25T00:31:04;8.50;99.90
18047;DHT22;9148;51.454;13.862;2022-09-25T00:33:31;8.30;99.90
18047;DHT22;9148;51.454;13.862;2022-09-25T00:36:06;8.30;99.90
18047;DHT22;9148;51.454;13.862;2022-09-25T00:38:34;8.30;99.90
18047;DHT22;9148;51.454;13.862;2022-09-25T00:41:01;8.30;99.90
18047;DHT22;9148;51.454;13.862;2022-09-25T00:43:46;8.30;99.90
18047;DHT22;9148;51.454;13.862;2022-09-25T00:46:26;8.20;99.90
18047;DHT22;9148;51.454;13.862;2022-09-25T00:49:06;8.20;99.90
18047;DHT22;9148;51.454;13.862;2022-09-25T00:51:42;8.20;99.90
18047;DHT22;9148;51.454;13.862;2022-09-25T00:54:19;8.20;99.90
18047;DHT22;9148;51.454;13.862;2022-09-25T00:56:50;8.10;99.90
18047;DHT22;9148;51.454;13.862;2022-09-25T00:59:20;8.00;99.90
18047;DHT22;9148;51.454;13.862;2022-09-25T01:01:47;8.10;99.90
18047;DHT22;9148;51.454;13.862;2022-09-25T01:04:13;8.00;99.90
18047;DHT22;9148;51.454;13.862;2022-09-25T01:06:40;8.00;99.90
18047;DHT22;9148;51.454;13.862;2022-09-25T01:09:06;7.90;99.90
18047;DHT22;9148;51.454;13.862;2022-09-25T01:11:32;7.80;99.90
18047;DHT22;9148;51.454;13.862;2022-09-25T01:14:01;7.80;99.90
18047;DHT22;9148;51.454;13.862;2022-09-25T01:16:51;7.80;99.90
18047;DHT22;9148;51.454;13.862;2022-09-25T01:25:59;7.70;99.90
18047;DHT22;9148;51.454;13.862;2022-09-25T01:31:33;7.60;99.90
18047;DHT22;9148;51.454;13.862;2022-09-25T01:34:17;7.50;99.90
18047;DHT22;9148;51.454;13.862;2022-09-25T01:36:51;7.50;99.90
18047;DHT22;9148;51.454;13.862;2022-09-25T01:39:30;7.40;99.90
18047;DHT22;9148;51.454;13.862;2022-09-25T01:42:08;7.40;99.90
18047;DHT22;9148;51.454;13.862;2022-09-25T01:44:44;7.40;99.90
18047;DHT22;9148;51.454;13.862;2022-09-25T01:47:23;7.80;99.90
18047;DHT22;9148;51.454;13.862;2022-09-25T01:49:58;7.30;99.90
18047;DHT22;9148;51.454;13.862;2022-09-25T01:52:31;7.30;99.90
18047;DHT22;9148;51.454;13.862;2022-09-25T01:55:26;7.60;99.90
18047;DHT22;9148;51.454;13.862;2022-09-25T02:00:43;7.30;99.90
18047;DHT22;9148;51.454;13.862;2022-09-25T02:03:27;7.30;99.90
18047;DHT22;9148;51.454;13.862;2022-09-25T02:06:01;7.20;99.90
18047;DHT22;9148;51.454;13.862;2022-09-25T02:08:40;7.20;99.90
18047;DHT22;9148;51.454;13.862;2022-09-25T02:11:10;7.40;99.90
18047;DHT22;9148;51.454;13.862;2022-09-25T02:14:01;7.30;99.90
18047;DHT22;9148;51.454;13.862;2022-09-25T02:16:39;7.20;99.90
18047;DHT22;9148;51.454;13.862;2022-09-25T02:19:13;7.40;99.90
18047;DHT22;9148;51.454;13.862;2022-09-25T02:27:29;7.10;99.90
18047;DHT22;9148;51.454;13.862;2022-09-25T02:29:56;7.10;99.90
18047;DHT22;9148;51.454;13.862;2022-09-25T02:32:29;7.10;99.90
18047;DHT22;9148;51.454;13.862;2022-09-25T02:34:59;7.30;99.90
18047;DHT22;9148;51.454;13.862;2022-09-25T02:37:25;7.00;99.90
18047;DHT22;9148;51.454;13.862;2022-09-25T02:39:53;7.30;99.90
18047;DHT22;9148;51.454;13.862;2022-09-25T02:42:39;7.00;99.90
18047;DHT22;9148;51.454;13.862;2022-09-25T02:48:26;6.90;99.90
18047;DHT22;9148;51.454;13.862;2022-09-25T02:53:45;6.80;99.90
18047;DHT22;9148;51.454;13.862;2022-09-25T02:56:38;6.80;99.90
18047;DHT22;9148;51.454;13.862;2022-09-25T02:59:08;6.80;99.90
18047;DHT22;9148;51.454;13.862;2022-09-25T03:01:41;6.70;99.90
18047;DHT22;9148;51.454;13.862;2022-09-25T03:04:07;6.70;99.90
18047;DHT22;9148;51.454;13.862;2022-09-25T03:06:36;6.70;99.90
18047;DHT22;9148;51.454;13.862;2022-09-25T03:09:03;6.60;99.90
18047;DHT22;9148;51.454;13.862;2022-09-25T03:11:29;6.60;99.90
18047;DHT22;9148;51.454;13.862;2022-09-25T03:14:00;6.60;99.90
18047;DHT22;9148;51.454;13.862;2022-09-25T03:16:37;6.90;99.90
18047;DHT22;9148;51.454;13.862;2022-09-25T03:19:12;6.60;99.90
18047;DHT22;9148;51.454;13.862;2022-09-25T03:21:38;6.50;99.90
18047;DHT22;9148;51.454;13.862;2022-09-25T03:24:04;6.50;99.90
18047;DHT22;9148;51.454;13.862;2022-09-25T03:26:30;6.50;99.90
18047;DHT22;9148;51.454;13.862;2022-09-25T03:28:56;6.40;99.90
18047;DHT22;9148;51.454;13.862;2022-09-25T03:31:27;6.40;99.90
18047;DHT22;9148;51.454;13.862;2022-09-25T03:33:54;6.40;99.90
18047;DHT22;9148;51.454;13.862;2022-09-25T03:36:22;6.30;99.90
18047;DHT22;9148;51.454;13.862;2022-09-25T03:38:51;6.30;99.90
18047;DHT22;9148;51.454;13.862;2022-09-25T03:41:20;6.60;99.90
18047;DHT22;9148;51.454;13.862;2022-09-25T03:43:48;6.40;99.90
18047;DHT22;9148;51.454;13.862;2022-09-25T03:46:18;6.20;99.90
18047;DHT22;9148;51.454;13.862;2022-09-25T03:48:45;6.20;99.90
18047;DHT22;9148;51.454;13.862;2022-09-25T03:51:11;6.10;99.90
18047;DHT22;9148;51.454;13.862;2022-09-25T03:53:37;6.10;99.90
18047;DHT22;9148;51.454;13.862;2022-09-25T03:56:08;6.10;99.90
18047;DHT22;9148;51.454;13.862;2022-09-25T03:58:36;6.10;99.90
18047;DHT22;9148;51.454;13.862;2022-09-25T04:01:02;6.50;99.90
18047;DHT22;9148;51.454;13.862;2022-09-25T04:03:30;6.00;99.90
18047;DHT22;9148;51.454;13.862;2022-09-25T04:05:59;5.90;99.90
18047;DHT22;9148;51.454;13.862;2022-09-25T04:08:27;5.90;99.90
18047;DHT22;9148;51.454;13.862;2022-09-25T04:10:53;5.90;99.90
18047;DHT22;9148;51.454;13.862;2022-09-25T04:13:28;5.90;99.90
18047;DHT22;9148;51.454;13.862;2022-09-25T04:15:57;5.90;99.90
18047;DHT22;9148;51.454;13.862;2022-09-25T04:18:24;5.80;99.90
18047;DHT22;9148;51.454;13.862;2022-09-25T04:20:50;5.80;99.90
18047;DHT22;9148;51.454;13.862;2022-09-25T04:23:16;5.70;99.90
18047;DHT22;9148;51.454;13.862;2022-09-25T04:25:42;6.00;99.90
18047;DHT22;9148;51.454;13.862;2022-09-25T04:28:08;5.70;99.90
18047;DHT22;9148;51.454;13.862;2022-09-25T04:30:34;5.70;99.90
18047;DHT22;9148;51.454;13.862;2022-09-25T04:33:00;5.60;99.90
18047;DHT22;9148;51.454;13.862;2022-09-25T04:35:44;5.70;99.90
18047;DHT22;9148;51.454;13.862;2022-09-25T04:38:10;5.60;99.90
18047;DHT22;9148;51.454;13.862;2022-09-25T04:40:36;5.60;99.90
18047;DHT22;9148;51.454;13.862;2022-09-25T04:43:04;5.50;99.90
18047;DHT22;9148;51.454;13.862;2022-09-25T04:45:33;5.60;99.90
18047;DHT22;9148;51.454;13.862;2022-09-25T04:48:01;5.50;99.90
18047;DHT22;9148;51.454;13.862;2022-09-25T04:50:28;5.70;99.90
18047;DHT22;9148;51.454;13.862;2022-09-25T04:52:58;5.90;99.90
18047;DHT22;9148;51.454;13.862;2022-09-25T04:55:25;5.70;99.90
18047;DHT22;9148;51.454;13.862;2022-09-25T04:57:52;5.50;99.90
18047;DHT22;9148;51.454;13.862;2022-09-25T05:00:20;5.60;99.90
18047;DHT22;9148;51.454;13.862;2022-09-25T05:02:46;5.60;99.90
18047;DHT22;9148;51.454;13.862;2022-09-25T05:05:13;5.60;99.90
18047;DHT22;9148;51.454;13.862;2022-09-25T05:07:40;5.60;99.90
18047;DHT22;9148;51.454;13.862;2022-09-25T05:10:15;5.60;99.90
18047;DHT22;9148;51.454;13.862;2022-09-25T05:12:41;5.60;99.90
18047;DHT22;9148;51.454;13.862;2022-09-25T05:15:08;5.60;99.90
18047;DHT22;9148;51.454;13.862;2022-09-25T05:17:34;5.60;99.90
18047;DHT22;9148;51.454;13.862;2022-09-25T05:20:00;5.70;99.90
18047;DHT22;9148;51.454;13.862;2022-09-25T05:22:27;5.70;99.90
18047;DHT22;9148;51.454;13.862;2022-09-25T05:24:53;5.70;99.90
18047;DHT22;9148;51.454;13.862;2022-09-25T05:27:18;6.10;99.90
18047;DHT22;9148;51.454;13.862;2022-09-25T05:29:45;6.20;99.90
18047;DHT22;9148;51.454;13.862;2022-09-25T05:32:11;6.30;99.90
18047;DHT22;9148;51.454;13.862;2022-09-25T05:34:36;5.80;99.90
18047;DHT22;9148;51.454;13.862;2022-09-25T05:37:02;6.20;99.90
18047;DHT22;9148;51.454;13.862;2022-09-25T05:39:28;5.80;99.90
18047;DHT22;9148;51.454;13.862;2022-09-25T05:41:53;5.80;99.90
18047;DHT22;9148;51.454;13.862;2022-09-25T05:44:19;5.90;99.90
18047;DHT22;9148;51.454;13.862;2022-09-25T05:46:45;5.80;99.90
18047;DHT22;9148;51.454;13.862;2022-09-25T05:49:11;6.30;99.90
18047;DHT22;9148;51.454;13.862;2022-09-25T05:51:37;5.80;99.90
18047;DHT22;9148;51.454;13.862;2022-09-25T05:54:02;5.80;99.90
18047;DHT22;9148;51.454;13.862;2022-09-25T05:56:28;6.00;99.90
18047;DHT22;9148;51.454;13.862;2022-09-25T05:58:54;6.10;99.90
18047;DHT22;9148;51.454;13.862;2022-09-25T06:01:22;6.30;99.90
18047;DHT22;9148;51.454;13.862;2022-09-25T06:03:48;6.50;99.90
18047;DHT22;9148;51.454;13.862;2022-09-25T06:06:14;6.70;99.90
18047;DHT22;9148;51.454;13.862;2022-09-25T06:08:39;7.30;99.90
18047;DHT22;9148;51.454;13.862;2022-09-25T06:11:06;7.20;99.90
18047;DHT22;9148;51.454;13.862;2022-09-25T06:13:32;7.40;99.90
18047;DHT22;9148;51.454;13.862;2022-09-25T06:15:59;7.70;99.90
18047;DHT22;9148;51.454;13.862;2022-09-25T06:18:26;8.00;99.90
18047;DHT22;9148;51.454;13.862;2022-09-25T06:21:01;8.30;99.90
18047;DHT22;9148;51.454;13.862;2022-09-25T06:23:28;8.50;99.90
18047;DHT22;9148;51.454;13.862;2022-09-25T06:25:59;8.80;99.90
18047;DHT22;9148;51.454;13.862;2022-09-25T06:28:26;9.10;99.90
18047;DHT22;9148;51.454;13.862;2022-09-25T06:30:52;9.40;99.90
18047;DHT22;9148;51.454;13.862;2022-09-25T06:33:18;9.80;99.90
18047;DHT22;9148;51.454;13.862;2022-09-25T06:35:45;10.20;99.90
18047;DHT22;9148;51.454;13.862;2022-09-25T06:38:12;10.60;99.90
18047;DHT22;9148;51.454;13.862;2022-09-25T06:40:39;10.90;99.90
18047;DHT22;9148;51.454;13.862;2022-09-25T06:43:08;11.20;99.90
18047;DHT22;9148;51.454;13.862;2022-09-25T06:45:35;11.50;99.90
18047;DHT22;9148;51.454;13.862;2022-09-25T06:48:08;11.80;99.90
18047;DHT22;9148;51.454;13.862;2022-09-25T06:50:39;12.00;99.90
18047;DHT22;9148;51.454;13.862;2022-09-25T06:53:07;12.10;99.90
18047;DHT22;9148;51.454;13.862;2022-09-25T06:55:34;12.20;99.90
18047;DHT22;9148;51.454;13.862;2022-09-25T06:58:00;12.30;99.90
18047;DHT22;9148;51.454;13.862;2022-09-25T07:00:26;12.50;99.90
18047;DHT22;9148;51.454;13.862;2022-09-25T07:02:52;12.80;99.90
18047;DHT22;9148;51.454;13.862;2022-09-25T07:05:36;13.10;99.90
18047;DHT22;9148;51.454;13.862;2022-09-25T07:08:02;13.60;99.90
18047;DHT22;9148;51.454;13.862;2022-09-25T07:10:28;13.90;99.90
18047;DHT22;9148;51.454;13.862;2022-09-25T07:12:53;14.10;99.90
18047;DHT22;9148;51.454;13.862;2022-09-25T07:15:19;14.30;99.90
18047;DHT22;9148;51.454;13.862;2022-09-25T07:17:45;14.30;99.90
18047;DHT22;9148;51.454;13.862;2022-09-25T07:20:12;14.40;99.90
18047;DHT22;9148;51.454;13.862;2022-09-25T07:22:40;14.40;99.90
18047;DHT22;9148;51.454;13.862;2022-09-25T07:25:07;14.50;99.90
18047;DHT22;9148;51.454;13.862;2022-09-25T07:27:34;14.60;99.90
18047;DHT22;9148;51.454;13.862;2022-09-25T07:30:00;14.60;99.90
18047;DHT22;9148;51.454;13.862;2022-09-25T07:32:27;14.70;99.90
18047;DHT22;9148;51.454;13.862;2022-09-25T07:34:53;14.70;99.90
18047;DHT22;9148;51.454;13.862;2022-09-25T07:37:19;14.80;99.90
18047;DHT22;9148;51.454;13.862;2022-09-25T07:39:45;14.80;99.90
18047;DHT22;9148;51.454;13.862;2022-09-25T07:42:10;14.80;99.90
18047;DHT22;9148;51.454;13.862;2022-09-25T07:44:37;14.80;99.90
18047;DHT22;9148;51.454;13.862;2022-09-25T07:47:04;14.90;99.90
18047;DHT22;9148;51.454;13.862;2022-09-25T07:49:31;14.80;99.90
18047;DHT22;9148;51.454;13.862;2022-09-25T07:51:58;14.90;99.90
18047;DHT22;9148;51.454;13.862;2022-09-25T07:54:23;15.00;99.90
18047;DHT22;9148;51.454;13.862;2022-09-25T07:56:50;15.00;99.90
18047;DHT22;9148;51.454;13.862;2022-09-25T07:59:15;15.10;99.90
18047;DHT22;9148;51.454;13.862;2022-09-25T08:01:41;15.20;99.90
18047;DHT22;9148;51.454;13.862;2022-09-25T08:04:07;15.40;99.90
18047;DHT22;9148;51.454;13.862;2022-09-25T08:06:34;15.40;99.90
18047;DHT22;9148;51.454;13.862;2022-09-25T08:09:00;15.50;99.90
18047;DHT22;9148;51.454;13.862;2022-09-25T08:11:25;15.50;99.90
18047;DHT22;9148;51.454;13.862;2022-09-25T08:13:53;15.60;99.90
18047;DHT22;9148;51.454;13.862;2022-09-25T08:16:19;15.60;99.90
18047;DHT22;9148;51.454;13.862;2022-09-25T08:18:48;15.60;99.90
18047;DHT22;9148;51.454;13.862;2022-09-25T08:21:17;15.70;99.90
18047;DHT22;9148;51.454;13.862;2022-09-25T08:23:48;15.80;99.90
18047;DHT22;9148;51.454;13.862;2022-09-25T08:26:16;15.90;99.90
18047;DHT22;9148;51.454;13.862;2022-09-25T08:28:42;16.00;99.90
18047;DHT22;9148;51.454;13.862;2022-09-25T08:31:08;16.10;99.90
18047;DHT22;9148;51.454;13.862;2022-09-25T08:33:34;16.20;99.90
18047;DHT22;9148;51.454;13.862;2022-09-25T08:36:03;16.40;99.90
18047;DHT22;9148;51.454;13.862;2022-09-25T08:38:30;16.50;99.90
18047;DHT22;9148;51.454;13.862;2022-09-25T08:44:13;16.80;99.90
18047;DHT22;9148;51.454;13.862;2022-09-25T08:46:58;17.10;99.90
18047;DHT22;9148;51.454;13.862;2022-09-25T08:52:43;17.00;99.90
18047;DHT22;9148;51.454;13.862;2022-09-25T08:55:18;17.10;99.90
18047;DHT22;9148;51.454;13.862;2022-09-25T08:57:49;17.20;99.90
18047;DHT22;9148;51.454;13.862;2022-09-25T09:00:19;17.30;99.90
18047;DHT22;9148;51.454;13.862;2022-09-25T09:02:53;17.30;99.90
18047;DHT22;9148;51.454;13.862;2022-09-25T09:05:34;17.40;99.90
18047;DHT22;9148;51.454;13.862;2022-09-25T09:08:09;17.60;99.90
18047;DHT22;9148;51.454;13.862;2022-09-25T09:10:44;17.80;99.90
18047;DHT22;9148;51.454;13.862;2022-09-25T09:15:45;18.20;99.90
18047;DHT22;9148;51.454;13.862;2022-09-25T09:18:25;18.40;99.90
18047;DHT22;9148;51.454;13.862;2022-09-25T09:20:57;18.60;99.90
18047;DHT22;9148;51.454;13.862;2022-09-25T09:23:32;18.90;99.60
18047;DHT22;9148;51.454;13.862;2022-09-25T09:26:04;19.10;99.10
18047;DHT22;9148;51.454;13.862;2022-09-25T09:31:39;19.60;98.20
18047;DHT22;9148;51.454;13.862;2022-09-25T09:34:32;19.90;97.60
18047;DHT22;9148;51.454;13.862;2022-09-25T09:37:17;20.40;96.80
18047;DHT22;9148;51.454;13.862;2022-09-25T09:40:07;20.80;95.70
18047;DHT22;9148;51.454;13.862;2022-09-25T09:48:58;22.20;92.40
18047;DHT22;9148;51.454;13.862;2022-09-25T09:51:29;22.60;90.70
18047;DHT22;9148;51.454;13.862;2022-09-25T09:54:02;23.10;88.30
18047;DHT22;9148;51.454;13.862;2022-09-25T09:56:33;23.50;84.60
18047;DHT22;9148;51.454;13.862;2022-09-25T09:59:08;23.80;76.60
18047;DHT22;9148;51.454;13.862;2022-09-25T10:01:41;23.90;74.50
18047;DHT22;9148;51.454;13.862;2022-09-25T10:04:11;24.10;73.50
18047;DHT22;9148;51.454;13.862;2022-09-25T10:06:50;24.40;73.50
18047;DHT22;9148;51.454;13.862;2022-09-25T10:09:18;24.70;72.10
18047;DHT22;9148;51.454;13.862;2022-09-25T10:11:45;24.80;71.50
18047;DHT22;9148;51.454;13.862;2022-09-25T10:14:20;25.00;70.20
18047;DHT22;9148;51.454;13.862;2022-09-25T10:16:49;25.20;69.00
18047;DHT22;9148;51.454;13.862;2022-09-25T10:19:19;25.30;64.20
18047;DHT22;9148;51.454;13.862;2022-09-25T10:21:50;25.40;64.50
18047;DHT22;9148;51.454;13.862;2022-09-25T10:24:47;25.60;63.10
18047;DHT22;9148;51.454;13.862;2022-09-25T10:27:32;25.90;62.30
18047;DHT22;9148;51.454;13.862;2022-09-25T10:30:15;26.10;61.80
18047;DHT22;9148;51.454;13.862;2022-09-25T10:33:08;26.50;61.50
18047;DHT22;9148;51.454;13.862;2022-09-25T10:38:06;27.10;57.70
18047;DHT22;9148;51.454;13.862;2022-09-25T10:40:43;27.30;57.60
18047;DHT22;9148;51.454;13.862;2022-09-25T10:43:19;27.40;57.00
18047;DHT22;9148;51.454;13.862;2022-09-25T10:45:48;27.60;56.30
18047;DHT22;9148;51.454;13.862;2022-09-25T10:48:29;27.90;55.90
18047;DHT22;9148;51.454;13.862;2022-09-25T10:51:15;28.10;55.50
18047;DHT22;9148;51.454;13.862;2022-09-25T10:53:44;28.20;54.30
18047;DHT22;9148;51.454;13.862;2022-09-25T10:56:29;28.20;54.00
18047;DHT22;9148;51.454;13.862;2022-09-25T10:59:00;28.20;53.60
18047;DHT22;9148;51.454;13.862;2022-09-25T11:01:35;28.30;53.20
18047;DHT22;9148;51.454;13.862;2022-09-25T11:04:09;28.40;52.20
18047;DHT22;9148;51.454;13.862;2022-09-25T11:06:50;28.40;51.70
18047;DHT22;9148;51.454;13.862;2022-09-25T11:09:25;28.20;50.90
18047;DHT22;9148;51.454;13.862;2022-09-25T11:12:03;28.20;50.60
18047;DHT22;9148;51.454;13.862;2022-09-25T11:14:33;27.90;50.20
18047;DHT22;9148;51.454;13.862;2022-09-25T11:17:01;27.70;50.10
18047;DHT22;9148;51.454;13.862;2022-09-25T11:19:37;27.40;49.90
18047;DHT22;9148;51.454;13.862;2022-09-25T11:22:25;27.10;49.60
18047;DHT22;9148;51.454;13.862;2022-09-25T11:25:15;26.80;49.30
18047;DHT22;9148;51.454;13.862;2022-09-25T11:27:50;26.40;49.50
18047;DHT22;9148;51.454;13.862;2022-09-25T11:30:22;26.10;49.70
18047;DHT22;9148;51.454;13.862;2022-09-25T11:33:05;26.10;50.00
18047;DHT22;9148;51.454;13.862;2022-09-25T11:36:07;26.00;49.90
18047;DHT22;9148;51.454;13.862;2022-09-25T11:38:44;25.80;49.30
18047;DHT22;9148;51.454;13.862;2022-09-25T11:41:52;25.60;49.80
18047;DHT22;9148;51.454;13.862;2022-09-25T11:47:42;25.20;50.90
18047;DHT22;9148;51.454;13.862;2022-09-25T11:50:14;25.30;50.80
18047;DHT22;9148;51.454;13.862;2022-09-25T11:52:54;25.50;49.90
18047;DHT22;9148;51.454;13.862;2022-09-25T11:55:35;25.60;50.10
18047;DHT22;9148;51.454;13.862;2022-09-25T12:04:31;26.10;50.70
18047;DHT22;9148;51.454;13.862;2022-09-25T12:10:18;26.90;49.90
18047;DHT22;9148;51.454;13.862;2022-09-25T12:13:08;27.20;48.90
18047;DHT22;9148;51.454;13.862;2022-09-25T12:16:20;27.30;48.40
18047;DHT22;9148;51.454;13.862;2022-09-25T12:18:54;27.50;48.40
18047;DHT22;9148;51.454;13.862;2022-09-25T12:27:22;28.40;47.60
18047;DHT22;9148;51.454;13.862;2022-09-25T12:30:10;28.80;46.10
18047;DHT22;9148;51.454;13.862;2022-09-25T12:33:00;29.10;46.00
18047;DHT22;9148;51.454;13.862;2022-09-25T12:36:15;29.30;45.50
18047;DHT22;9148;51.454;13.862;2022-09-25T12:38:57;29.70;44.60
18047;DHT22;9148;51.454;13.862;2022-09-25T12:44:34;29.60;43.00
18047;DHT22;9148;51.454;13.862;2022-09-25T12:47:12;29.70;42.90
18047;DHT22;9148;51.454;13.862;2022-09-25T12:50:02;29.80;43.00
18047;DHT22;9148;51.454;13.862;2022-09-25T12:52:40;30.00;42.70
18047;DHT22;9148;51.454;13.862;2022-09-25T12:55:16;30.10;42.60
18047;DHT22;9148;51.454;13.862;2022-09-25T12:58:13;30.20;42.70
18047;DHT22;9148;51.454;13.862;2022-09-25T13:00:49;30.40;42.50
18047;DHT22;9148;51.454;13.862;2022-09-25T13:03:28;30.60;42.30
18047;DHT22;9148;51.454;13.862;2022-09-25T13:06:20;30.70;41.40
18047;DHT22;9148;51.454;13.862;2022-09-25T13:09:17;30.80;41.10
18047;DHT22;9148;51.454;13.862;2022-09-25T13:11:59;31.00;40.90
18047;DHT22;9148;51.454;13.862;2022-09-25T13:14:32;31.10;40.80
18047;DHT22;9148;51.454;13.862;2022-09-25T13:17:01;31.20;40.60
18047;DHT22;9148;51.454;13.862;2022-09-25T13:19:29;31.20;40.40
18047;DHT22;9148;51.454;13.862;2022-09-25T13:22:09;31.00;40.20
18047;DHT22;9148;51.454;13.862;2022-09-25T13:24:42;30.80;40.30
18047;DHT22;9148;51.454;13.862;2022-09-25T13:27:14;30.70;40.30
18047;DHT22;9148;51.454;13.862;2022-09-25T13:29:43;30.60;40.30
18047;DHT22;9148;51.454;13.862;2022-09-25T13:32:18;30.60;40.40
18047;DHT22;9148;51.454;13.862;2022-09-25T13:34:52;30.50;40.00
18047;DHT22;9148;51.454;13.862;2022-09-25T13:37:27;30.40;40.10
18047;DHT22;9148;51.454;13.862;2022-09-25T13:39:55;30.10;39.80
18047;DHT22;9148;51.454;13.862;2022-09-25T13:42:42;30.00;40.10
18047;DHT22;9148;51.454;13.862;2022-09-25T13:45:29;29.90;40.20
18047;DHT22;9148;51.454;13.862;2022-09-25T13:48:09;29.80;40.30
18047;DHT22;9148;51.454;13.862;2022-09-25T13:50:43;29.50;40.40
18047;DHT22;9148;51.454;13.862;2022-09-25T13:58:23;29.00;40.60
18047;DHT22;9148;51.454;13.862;2022-09-25T14:00:51;29.00;40.70
18047;DHT22;9148;51.454;13.862;2022-09-25T14:03:43;29.00;40.60
18047;DHT22;9148;51.454;13.862;2022-09-25T14:06:31;29.10;40.70
18047;DHT22;9148;51.454;13.862;2022-09-25T14:09:05;29.00;41.00
18047;DHT22;9148;51.454;13.862;2022-09-25T14:11:35;28.90;40.90
18047;DHT22;9148;51.454;13.862;2022-09-25T14:14:07;28.70;41.20
18047;DHT22;9148;51.454;13.862;2022-09-25T14:16:48;28.30;41.50
18047;DHT22;9148;51.454;13.862;2022-09-25T14:19:19;27.80;42.00
18047;DHT22;9148;51.454;13.862;2022-09-25T14:21:48;27.10;42.40
18047;DHT22;9148;51.454;13.862;2022-09-25T14:24:20;26.80;42.90
18047;DHT22;9148;51.454;13.862;2022-09-25T14:26:54;26.40;43.20
18047;DHT22;9148;51.454;13.862;2022-09-25T14:29:28;26.10;43.70
18047;DHT22;9148;51.454;13.862;2022-09-25T14:32:20;25.70;44.00
18047;DHT22;9148;51.454;13.862;2022-09-25T14:35:15;25.40;44.50
18047;DHT22;9148;51.454;13.862;2022-09-25T14:44:35;24.60;46.00
18047;DHT22;9148;51.454;13.862;2022-09-25T14:47:07;24.30;46.40
18047;DHT22;9148;51.454;13.862;2022-09-25T14:49:39;24.10;46.70
18047;DHT22;9148;51.454;13.862;2022-09-25T14:52:11;24.00;47.00
18047;DHT22;9148;51.454;13.862;2022-09-25T14:54:47;23.80;47.30
18047;DHT22;9148;51.454;13.862;2022-09-25T14:57:19;23.70;47.80
18047;DHT22;9148;51.454;13.862;2022-09-25T14:59:56;23.60;48.10
18047;DHT22;9148;51.454;13.862;2022-09-25T15:02:35;23.60;48.40
18047;DHT22;9148;51.454;13.862;2022-09-25T15:07:48;23.70;48.50
18047;DHT22;9148;51.454;13.862;2022-09-25T15:10:36;23.70;48.40
18047;DHT22;9148;51.454;13.862;2022-09-25T15:13:17;23.80;48.30
18047;DHT22;9148;51.454;13.862;2022-09-25T15:15:55;23.70;48.20
18047;DHT22;9148;51.454;13.862;2022-09-25T15:18:43;23.70;48.20
18047;DHT22;9148;51.454;13.862;2022-09-25T15:21:31;23.70;48.30
18047;DHT22;9148;51.454;13.862;2022-09-25T15:24:11;23.60;48.80
18047;DHT22;9148;51.454;13.862;2022-09-25T15:26:54;23.50;48.40
18047;DHT22;9148;51.454;13.862;2022-09-25T15:29:29;23.40;48.50
18047;DHT22;9148;51.454;13.862;2022-09-25T15:31:59;23.30;49.10
18047;DHT22;9148;51.454;13.862;2022-09-25T15:34:28;23.20;48.70
18047;DHT22;9148;51.454;13.862;2022-09-25T15:37:19;23.10;49.10
18047;DHT22;9148;51.454;13.862;2022-09-25T15:39:50;23.00;49.40
18047;DHT22;9148;51.454;13.862;2022-09-25T15:42:16;22.80;49.70
18047;DHT22;9148;51.454;13.862;2022-09-25T15:44:42;22.60;49.90
18047;DHT22;9148;51.454;13.862;2022-09-25T15:47:49;22.40;50.20
18047;DHT22;9148;51.454;13.862;2022-09-25T15:50:21;22.20;50.60
18047;DHT22;9148;51.454;13.862;2022-09-25T15:52:53;22.00;51.00
18047;DHT22;9148;51.454;13.862;2022-09-25T15:55:22;21.70;51.30
18047;DHT22;9148;51.454;13.862;2022-09-25T15:57:52;21.60;51.80
18047;DHT22;9148;51.454;13.862;2022-09-25T16:00:22;21.40;52.00
18047;DHT22;9148;51.454;13.862;2022-09-25T16:03:19;21.20;52.30
18047;DHT22;9148;51.454;13.862;2022-09-25T16:06:07;21.10;52.70
18047;DHT22;9148;51.454;13.862;2022-09-25T16:08:37;20.90;52.90
18047;DHT22;9148;51.454;13.862;2022-09-25T16:11:24;20.80;53.30
18047;DHT22;9148;51.454;13.862;2022-09-25T16:13:52;20.70;53.70
18047;DHT22;9148;51.454;13.862;2022-09-25T16:16:45;20.50;54.00
18047;DHT22;9148;51.454;13.862;2022-09-25T16:21:49;20.20;55.10
18047;DHT22;9148;51.454;13.862;2022-09-25T16:24:24;20.10;55.40
18047;DHT22;9148;51.454;13.862;2022-09-25T16:26:54;20.00;56.40
18047;DHT22;9148;51.454;13.862;2022-09-25T16:29:23;19.90;56.30
18047;DHT22;9148;51.454;13.862;2022-09-25T16:31:51;19.70;56.70
18047;DHT22;9148;51.454;13.862;2022-09-25T16:34:30;19.60;57.10
18047;DHT22;9148;51.454;13.862;2022-09-25T16:37:05;19.50;57.60
18047;DHT22;9148;51.454;13.862;2022-09-25T16:39:41;19.40;58.10
18047;DHT22;9148;51.454;13.862;2022-09-25T16:45:01;19.20;59.30
18047;DHT22;9148;51.454;13.862;2022-09-25T16:47:29;19.10;60.00
18047;DHT22;9148;51.454;13.862;2022-09-25T16:49:55;18.90;60.50
18047;DHT22;9148;51.454;13.862;2022-09-25T16:52:22;18.90;61.10
18047;DHT22;9148;51.454;13.862;2022-09-25T16:54:53;18.80;61.50
18047;DHT22;9148;51.454;13.862;2022-09-25T16:57:24;18.70;61.90
18047;DHT22;9148;51.454;13.862;2022-09-25T16:59:52;18.70;62.20
18047;DHT22;9148;51.454;13.862;2022-09-25T17:05:04;18.50;63.30
18047;DHT22;9148;51.454;13.862;2022-09-25T17:07:32;18.40;63.90
18047;DHT22;9148;51.454;13.862;2022-09-25T17:09:58;18.30;64.40
18047;DHT22;9148;51.454;13.862;2022-09-25T17:12:25;18.30;65.10
18047;DHT22;9148;51.454;13.862;2022-09-25T17:14:52;18.20;65.70
18047;DHT22;9148;51.454;13.862;2022-09-25T17:17:19;18.10;66.20
18047;DHT22;9148;51.454;13.862;2022-09-25T17:19:47;18.00;66.70
18047;DHT22;9148;51.454;13.862;2022-09-25T17:22:13;18.00;67.30
18047;DHT22;9148;51.454;13.862;2022-09-25T17:24:39;17.90;68.00
18047;DHT22;9148;51.454;13.862;2022-09-25T17:27:10;18.10;68.70
18047;DHT22;9148;51.454;13.862;2022-09-25T17:29:37;17.80;69.20
18047;DHT22;9148;51.454;13.862;2022-09-25T17:32:03;17.80;69.70
18047;DHT22;9148;51.454;13.862;2022-09-25T17:34:29;17.80;70.30
18047;DHT22;9148;51.454;13.862;2022-09-25T17:36:55;17.70;70.80
18047;DHT22;9148;51.454;13.862;2022-09-25T17:39:22;17.70;71.40
18047;DHT22;9148;51.454;13.862;2022-09-25T17:41:48;17.60;71.90